sensor_id;sensor_type;location;lat;lon;timestamp;pressure;altitude;pressure_sealevel;temperature;humidity
75617;BME280;64200;55.426;37.758;2023-05-13T00:04:04;99694.75;;;13.52;39.63
75617;BME280;64200;55.426;37.758;2023-05-13T00:09:06;99691.78;;;13.41;39.58
75617;BME280;64200;55.426;37.758;2023-05-13T00:14:06;99694.66;;;13.32;39.74
75617;BME280;64200;55.426;37.758;2023-05-13T00:19:09;99689.84;;;13.32;39.73
75617;BME280;64200;55.426;37.758;2023-05-13T00:24:10;99691.59;;;13.30;39.68
75617;BME280;64200;55.426;37.758;2023-05-13T00:29:10;99702.31;;;13.16;40.35
75617;BME280;64200;55.426;37.758;2023-05-13T00:34:11;99702.97;;;13.11;40.58
75617;BME280;64200;55.426;37.758;2023-05-13T00:39:12;99706.63;;;13.03;40.93
75617;BME280;64200;55.426;37.758;2023-05-13T00:44:12;99701.81;;;13.03;40.59
75617;BME280;64200;55.426;37.758;2023-05-13T00:49:13;99710.88;;;12.98;40.42
75617;BME280;64200;55.426;37.758;2023-05-13T00:54:13;99709.25;;;12.91;40.77
75617;BME280;64200;55.426;37.758;2023-05-13T00:59:14;99701.72;;;12.82;40.91
75617;BME280;64200;55.426;37.758;2023-05-13T01:05:15;99712.41;;;12.69;41.20
75617;BME280;64200;55.426;37.758;2023-05-13T01:10:47;99726.88;;;12.68;41.53
75617;BME280;64200;55.426;37.758;2023-05-13T01:16:08;99715.16;;;12.54;42.21
75617;BME280;64200;55.426;37.758;2023-05-13T01:21:11;99720.28;;;12.56;41.88
75617;BME280;64200;55.426;37.758;2023-05-13T01:26:12;99716.97;;;12.42;42.01
75617;BME280;64200;55.426;37.758;2023-05-13T01:31:13;99723.44;;;12.48;42.32
75617;BME280;64200;55.426;37.758;2023-05-13T01:36:15;99723.31;;;12.43;42.38
75617;BME280;64200;55.426;37.758;2023-05-13T01:41:15;99727.38;;;12.42;42.25
75617;BME280;64200;55.426;37.758;2023-05-13T01:46:16;99722.31;;;12.31;43.13
75617;BME280;64200;55.426;37.758;2023-05-13T01:51:17;99728.97;;;12.34;43.02
75617;BME280;64200;55.426;37.758;2023-05-13T01:56:17;99724.03;;;12.28;42.84
75617;BME280;64200;55.426;37.758;2023-05-13T02:01:18;99737.78;;;12.41;42.74
75617;BME280;64200;55.426;37.758;2023-05-13T02:06:18;99733.78;;;12.33;43.05
75617;BME280;64200;55.426;37.758;2023-05-13T02:11:19;99753.00;;;12.40;42.83
75617;BME280;64200;55.426;37.758;2023-05-13T02:16:20;99744.94;;;12.42;42.92
75617;BME280;64200;55.426;37.758;2023-05-13T02:21:21;99746.47;;;12.43;43.17
75617;BME280;64200;55.426;37.758;2023-05-13T02:26:21;99754.22;;;12.48;42.78
75617;BME280;64200;55.426;37.758;2023-05-13T02:31:22;99747.25;;;12.44;43.18
75617;BME280;64200;55.426;37.758;2023-05-13T02:36:23;99747.66;;;12.52;43.13
75617;BME280;64200;55.426;37.758;2023-05-13T02:41:23;99762.31;;;12.46;43.44
75617;BME280;64200;55.426;37.758;2023-05-13T02:46:24;99767.72;;;12.50;43.28
75617;BME280;64200;55.426;37.758;2023-05-13T02:51:24;99762.41;;;12.52;43.53
75617;BME280;64200;55.426;37.758;2023-05-13T02:56:25;99770.44;;;12.59;43.48
75617;BME280;64200;55.426;37.758;2023-05-13T03:01:25;99761.81;;;12.72;43.61
75617;BME280;64200;55.426;37.758;2023-05-13T03:06:26;99767.69;;;12.74;43.62
75617;BME280;64200;55.426;37.758;2023-05-13T03:11:26;99773.16;;;12.93;43.46
75617;BME280;64200;55.426;37.758;2023-05-13T03:16:27;99778.88;;;12.98;43.55
75617;BME280;64200;55.426;37.758;2023-05-13T03:21:28;99776.38;;;13.15;43.25
75617;BME280;64200;55.426;37.758;2023-05-13T03:26:28;99782.97;;;13.27;43.08
75617;BME280;64200;55.426;37.758;2023-05-13T03:31:29;99780.41;;;13.39;43.18
75617;BME280;64200;55.426;37.758;2023-05-13T03:36:29;99789.66;;;13.45;43.22
75617;BME280;64200;55.426;37.758;2023-05-13T03:41:31;99787.06;;;13.56;43.24
75617;BME280;64200;55.426;37.758;2023-05-13T03:46:32;99786.38;;;13.76;43.49
75617;BME280;64200;55.426;37.758;2023-05-13T03:51:33;99786.53;;;14.02;42.79
75617;BME280;64200;55.426;37.758;2023-05-13T03:56:33;99794.00;;;14.26;42.70
75617;BME280;64200;55.426;37.758;2023-05-13T04:01:34;99795.50;;;14.42;42.46
75617;BME280;64200;55.426;37.758;2023-05-13T04:06:35;99797.19;;;14.54;42.19
75617;BME280;64200;55.426;37.758;2023-05-13T04:11:36;99795.50;;;14.78;42.29
75617;BME280;64200;55.426;37.758;2023-05-13T04:16:36;99800.53;;;14.94;42.12
75617;BME280;64200;55.426;37.758;2023-05-13T04:21:37;99797.63;;;15.09;41.91
75617;BME280;64200;55.426;37.758;2023-05-13T04:26:37;99813.63;;;15.23;41.63
75617;BME280;64200;55.426;37.758;2023-05-13T04:31:38;99811.03;;;15.46;41.72
75617;BME280;64200;55.426;37.758;2023-05-13T04:36:38;99809.91;;;15.64;41.05
75617;BME280;64200;55.426;37.758;2023-05-13T04:41:39;99814.75;;;15.90;41.23
75617;BME280;64200;55.426;37.758;2023-05-13T04:46:41;99816.44;;;16.08;40.73
75617;BME280;64200;55.426;37.758;2023-05-13T04:51:43;99820.66;;;16.29;40.16
75617;BME280;64200;55.426;37.758;2023-05-13T04:56:44;99814.16;;;16.49;39.78
75617;BME280;64200;55.426;37.758;2023-05-13T05:01:44;99815.78;;;16.67;39.53
75617;BME280;64200;55.426;37.758;2023-05-13T05:06:45;99812.34;;;16.95;39.23
75617;BME280;64200;55.426;37.758;2023-05-13T05:11:46;99819.50;;;16.96;38.87
75617;BME280;64200;55.426;37.758;2023-05-13T05:16:49;99813.16;;;17.13;39.07
75617;BME280;64200;55.426;37.758;2023-05-13T05:21:50;99816.03;;;17.41;38.43
75617;BME280;64200;55.426;37.758;2023-05-13T05:26:51;99817.88;;;17.78;38.72
75617;BME280;64200;55.426;37.758;2023-05-13T05:31:51;99806.31;;;18.10;38.21
75617;BME280;64200;55.426;37.758;2023-05-13T05:36:52;99819.63;;;18.38;37.13
75617;BME280;64200;55.426;37.758;2023-05-13T05:41:54;99817.25;;;18.65;36.92
75617;BME280;64200;55.426;37.758;2023-05-13T05:46:54;99825.69;;;18.76;36.81
75617;BME280;64200;55.426;37.758;2023-05-13T05:51:55;99815.06;;;18.99;36.48
75617;BME280;64200;55.426;37.758;2023-05-13T05:56:55;99813.94;;;19.25;36.08
75617;BME280;64200;55.426;37.758;2023-05-13T06:01:56;99817.88;;;19.52;35.68
75617;BME280;64200;55.426;37.758;2023-05-13T06:06:56;99832.31;;;19.85;35.53
75617;BME280;64200;55.426;37.758;2023-05-13T06:11:57;99831.59;;;19.78;34.58
75617;BME280;64200;55.426;37.758;2023-05-13T06:16:57;99820.66;;;20.24;34.09
75617;BME280;64200;55.426;37.758;2023-05-13T06:21:58;99826.91;;;20.66;32.30
75617;BME280;64200;55.426;37.758;2023-05-13T06:26:58;99829.81;;;21.04;31.67
75617;BME280;64200;55.426;37.758;2023-05-13T06:31:59;99831.53;;;21.51;29.91
75617;BME280;64200;55.426;37.758;2023-05-13T06:37:00;99829.28;;;21.63;27.54
75617;BME280;64200;55.426;37.758;2023-05-13T06:42:00;99819.88;;;22.01;26.85
75617;BME280;64200;55.426;37.758;2023-05-13T06:47:01;99827.97;;;22.56;26.77
75617;BME280;64200;55.426;37.758;2023-05-13T06:52:05;99820.81;;;23.16;26.02
75617;BME280;64200;55.426;37.758;2023-05-13T06:57:05;99823.53;;;23.56;24.78
75617;BME280;64200;55.426;37.758;2023-05-13T07:02:06;99823.66;;;24.06;23.63
75617;BME280;64200;55.426;37.758;2023-05-13T07:07:09;99828.47;;;24.40;23.43
75617;BME280;64200;55.426;37.758;2023-05-13T07:12:10;99824.91;;;24.76;21.68
75617;BME280;64200;55.426;37.758;2023-05-13T07:17:10;99819.53;;;25.09;20.05
75617;BME280;64200;55.426;37.758;2023-05-13T07:22:11;99822.00;;;25.65;20.97
75617;BME280;64200;55.426;37.758;2023-05-13T07:27:12;99821.31;;;26.03;19.79
75617;BME280;64200;55.426;37.758;2023-05-13T07:32:12;99813.59;;;26.59;19.68
75617;BME280;64200;55.426;37.758;2023-05-13T07:37:13;99809.97;;;27.15;19.07
75617;BME280;64200;55.426;37.758;2023-05-13T07:42:14;99827.34;;;27.58;18.33
75617;BME280;64200;55.426;37.758;2023-05-13T07:47:14;99835.66;;;27.96;17.66
75617;BME280;64200;55.426;37.758;2023-05-13T07:52:15;99824.06;;;28.37;18.63
75617;BME280;64200;55.426;37.758;2023-05-13T07:57:16;99819.66;;;30.15;17.25
75617;BME280;64200;55.426;37.758;2023-05-13T08:02:16;99837.72;;;31.52;15.21
75617;BME280;64200;55.426;37.758;2023-05-13T08:07:17;99839.75;;;32.22;15.06
75617;BME280;64200;55.426;37.758;2023-05-13T08:12:17;99838.16;;;33.30;13.53
75617;BME280;64200;55.426;37.758;2023-05-13T08:17:18;99835.66;;;33.93;12.93
75617;BME280;64200;55.426;37.758;2023-05-13T08:22:18;99837.75;;;34.89;12.68
75617;BME280;64200;55.426;37.758;2023-05-13T08:27:19;99824.78;;;36.09;10.83
75617;BME280;64200;55.426;37.758;2023-05-13T08:32:20;99819.88;;;35.72;10.57
75617;BME280;64200;55.426;37.758;2023-05-13T08:37:20;99827.72;;;35.69;11.41
75617;BME280;64200;55.426;37.758;2023-05-13T08:42:22;99819.53;;;36.33;10.01
75617;BME280;64200;55.426;37.758;2023-05-13T08:52:44;99820.41;;;35.55;9.67
75617;BME280;64200;55.426;37.758;2023-05-13T08:57:45;99820.56;;;36.12;10.04
75617;BME280;64200;55.426;37.758;2023-05-13T09:02:46;99808.00;;;37.39;8.40
75617;BME280;64200;55.426;37.758;2023-05-13T09:07:46;99797.00;;;37.69;9.27
75617;BME280;64200;55.426;37.758;2023-05-13T09:12:54;99809.53;;;39.46;8.53
75617;BME280;64200;55.426;37.758;2023-05-13T09:17:59;99808.41;;;40.55;7.28
75617;BME280;64200;55.426;37.758;2023-05-13T09:23:02;99793.84;;;39.95;7.71
75617;BME280;64200;55.426;37.758;2023-05-13T09:28:05;99779.25;;;38.63;7.21
75617;BME280;64200;55.426;37.758;2023-05-13T09:33:12;99784.41;;;38.64;7.99
75617;BME280;64200;55.426;37.758;2023-05-13T09:38:18;99782.06;;;41.00;7.21
75617;BME280;64200;55.426;37.758;2023-05-13T09:43:23;99794.53;;;41.99;6.36
75617;BME280;64200;55.426;37.758;2023-05-13T09:48:25;99778.88;;;42.45;6.42
75617;BME280;64200;55.426;37.758;2023-05-13T09:53:27;99769.19;;;43.31;5.82
75617;BME280;64200;55.426;37.758;2023-05-13T09:58:28;99747.63;;;41.99;5.19
75617;BME280;64200;55.426;37.758;2023-05-13T10:03:30;99769.56;;;41.72;6.35
75617;BME280;64200;55.426;37.758;2023-05-13T10:08:31;99756.59;;;42.62;5.00
75617;BME280;64200;55.426;37.758;2023-05-13T10:13:32;99753.41;;;42.82;5.22
75617;BME280;64200;55.426;37.758;2023-05-13T10:18:33;99754.94;;;43.17;5.27
75617;BME280;64200;55.426;37.758;2023-05-13T10:23:35;99753.78;;;43.67;4.57
75617;BME280;64200;55.426;37.758;2023-05-13T10:28:37;99754.19;;;44.71;4.19
75617;BME280;64200;55.426;37.758;2023-05-13T10:33:38;99759.25;;;44.67;3.92
75617;BME280;64200;55.426;37.758;2023-05-13T10:39:18;99746.09;;;41.96;4.27
75617;BME280;64200;55.426;37.758;2023-05-13T10:44:23;99749.56;;;41.14;5.16
75617;BME280;64200;55.426;37.758;2023-05-13T10:49:31;99742.59;;;41.75;4.61
75617;BME280;64200;55.426;37.758;2023-05-13T10:54:37;99746.13;;;42.24;5.38
75617;BME280;64200;55.426;37.758;2023-05-13T11:00:10;99733.88;;;43.64;4.51
75617;BME280;64200;55.426;37.758;2023-05-13T11:05:20;99748.16;;;44.20;4.64
75617;BME280;64200;55.426;37.758;2023-05-13T11:10:25;99735.94;;;43.57;4.63
75617;BME280;64200;55.426;37.758;2023-05-13T11:15:48;99733.53;;;43.84;4.35
75617;BME280;64200;55.426;37.758;2023-05-13T11:20:52;99728.56;;;43.20;4.44
75617;BME280;64200;55.426;37.758;2023-05-13T11:26:13;99718.66;;;43.03;4.74
75617;BME280;64200;55.426;37.758;2023-05-13T11:31:16;99719.38;;;43.38;4.37
75617;BME280;64200;55.426;37.758;2023-05-13T11:36:17;99717.66;;;43.97;4.35
75617;BME280;64200;55.426;37.758;2023-05-13T11:41:19;99716.09;;;44.37;3.88
75617;BME280;64200;55.426;37.758;2023-05-13T11:46:21;99711.63;;;42.84;4.54
75617;BME280;64200;55.426;37.758;2023-05-13T11:51:23;99714.16;;;43.71;4.36
75617;BME280;64200;55.426;37.758;2023-05-13T11:56:29;99702.03;;;43.15;4.59
75617;BME280;64200;55.426;37.758;2023-05-13T12:01:30;99697.72;;;43.55;4.43
75617;BME280;64200;55.426;37.758;2023-05-13T12:06:30;99696.94;;;42.84;4.68
75617;BME280;64200;55.426;37.758;2023-05-13T12:11:31;99690.50;;;41.46;5.39
75617;BME280;64200;55.426;37.758;2023-05-13T12:16:32;99675.72;;;36.48;7.09
75617;BME280;64200;55.426;37.758;2023-05-13T12:21:33;99670.25;;;33.37;8.86
75617;BME280;64200;55.426;37.758;2023-05-13T12:26:34;99671.94;;;31.73;10.08
75617;BME280;64200;55.426;37.758;2023-05-13T12:31:34;99666.09;;;30.69;10.29
75617;BME280;64200;55.426;37.758;2023-05-13T12:36:36;99658.25;;;30.01;11.51
75617;BME280;64200;55.426;37.758;2023-05-13T12:41:39;99656.50;;;29.59;12.25
75617;BME280;64200;55.426;37.758;2023-05-13T12:46:50;99655.88;;;29.14;13.02
75617;BME280;64200;55.426;37.758;2023-05-13T12:51:51;99660.97;;;29.05;12.81
75617;BME280;64200;55.426;37.758;2023-05-13T12:56:52;99641.16;;;28.72;12.47
75617;BME280;64200;55.426;37.758;2023-05-13T13:01:52;99645.59;;;28.38;13.21
75617;BME280;64200;55.426;37.758;2023-05-13T13:06:53;99646.69;;;28.43;13.47
75617;BME280;64200;55.426;37.758;2023-05-13T13:11:53;99632.03;;;27.86;13.62
75617;BME280;64200;55.426;37.758;2023-05-13T13:16:54;99638.69;;;27.72;13.52
75617;BME280;64200;55.426;37.758;2023-05-13T13:21:54;99647.16;;;27.62;13.96
75617;BME280;64200;55.426;37.758;2023-05-13T13:26:55;99647.00;;;27.60;14.14
75617;BME280;64200;55.426;37.758;2023-05-13T13:31:56;99641.91;;;27.25;13.95
75617;BME280;64200;55.426;37.758;2023-05-13T13:36:56;99638.88;;;27.23;14.18
75617;BME280;64200;55.426;37.758;2023-05-13T13:41:57;99635.44;;;26.99;14.24
75617;BME280;64200;55.426;37.758;2023-05-13T13:46:58;99628.50;;;26.77;14.85
75617;BME280;64200;55.426;37.758;2023-05-13T13:51:58;99630.63;;;26.77;14.65
75617;BME280;64200;55.426;37.758;2023-05-13T13:56:59;99631.78;;;26.66;15.38
75617;BME280;64200;55.426;37.758;2023-05-13T14:01:59;99638.66;;;26.71;15.29
75617;BME280;64200;55.426;37.758;2023-05-13T14:07:00;99637.22;;;26.46;15.47
75617;BME280;64200;55.426;37.758;2023-05-13T14:12:01;99629.44;;;26.39;15.36
75617;BME280;64200;55.426;37.758;2023-05-13T14:17:01;99632.38;;;26.24;15.25
75617;BME280;64200;55.426;37.758;2023-05-13T14:22:02;99630.91;;;26.07;15.50
75617;BME280;64200;55.426;37.758;2023-05-13T14:27:03;99628.81;;;25.92;15.74
75617;BME280;64200;55.426;37.758;2023-05-13T14:32:04;99626.94;;;25.80;15.52
75617;BME280;64200;55.426;37.758;2023-05-13T14:37:05;99629.06;;;25.79;15.98
75617;BME280;64200;55.426;37.758;2023-05-13T14:42:06;99633.81;;;25.61;15.94
75617;BME280;64200;55.426;37.758;2023-05-13T14:47:07;99627.16;;;25.51;16.32
75617;BME280;64200;55.426;37.758;2023-05-13T14:52:08;99629.66;;;25.54;16.42
75617;BME280;64200;55.426;37.758;2023-05-13T14:57:08;99619.94;;;25.57;16.12
75617;BME280;64200;55.426;37.758;2023-05-13T15:02:09;99616.16;;;25.39;17.04
75617;BME280;64200;55.426;37.758;2023-05-13T15:07:12;99623.72;;;25.14;17.30
75617;BME280;64200;55.426;37.758;2023-05-13T15:12:13;99610.78;;;24.97;17.48
75617;BME280;64200;55.426;37.758;2023-05-13T15:17:14;99617.78;;;24.88;17.75
75617;BME280;64200;55.426;37.758;2023-05-13T15:22:14;99621.38;;;24.73;17.91
75617;BME280;64200;55.426;37.758;2023-05-13T15:27:16;99625.09;;;24.53;18.30
75617;BME280;64200;55.426;37.758;2023-05-13T15:32:18;99612.13;;;24.36;18.43
75617;BME280;64200;55.426;37.758;2023-05-13T15:37:19;99621.06;;;24.33;18.62
75617;BME280;64200;55.426;37.758;2023-05-13T15:42:19;99622.94;;;24.30;18.71
75617;BME280;64200;55.426;37.758;2023-05-13T15:47:20;99616.47;;;24.22;19.11
75617;BME280;64200;55.426;37.758;2023-05-13T15:52:21;99610.50;;;24.12;19.39
75617;BME280;64200;55.426;37.758;2023-05-13T15:57:21;99605.28;;;23.95;19.82
75617;BME280;64200;55.426;37.758;2023-05-13T16:02:22;99613.16;;;23.81;20.04
75617;BME280;64200;55.426;37.758;2023-05-13T16:07:22;99613.28;;;23.68;19.94
75617;BME280;64200;55.426;37.758;2023-05-13T16:12:23;99612.16;;;23.42;20.15
75617;BME280;64200;55.426;37.758;2023-05-13T16:17:24;99609.78;;;23.33;20.42
75617;BME280;64200;55.426;37.758;2023-05-13T16:22:29;99612.72;;;23.20;20.60
75617;BME280;64200;55.426;37.758;2023-05-13T16:27:32;99609.63;;;23.10;20.72
75617;BME280;64200;55.426;37.758;2023-05-13T16:32:33;99606.19;;;22.90;21.29
75617;BME280;64200;55.426;37.758;2023-05-13T16:37:34;99606.59;;;22.73;21.40
75617;BME280;64200;55.426;37.758;2023-05-13T16:42:34;99603.78;;;22.60;21.39
75617;BME280;64200;55.426;37.758;2023-05-13T16:47:35;99602.63;;;22.55;21.78
75617;BME280;64200;55.426;37.758;2023-05-13T16:52:36;99608.41;;;22.50;21.50
75617;BME280;64200;55.426;37.758;2023-05-13T16:57:36;99622.09;;;22.51;22.12
75617;BME280;64200;55.426;37.758;2023-05-13T17:02:37;99623.38;;;22.50;21.76
75617;BME280;64200;55.426;37.758;2023-05-13T17:07:38;99619.91;;;22.44;22.11
75617;BME280;64200;55.426;37.758;2023-05-13T17:12:38;99631.16;;;22.50;22.08
75617;BME280;64200;55.426;37.758;2023-05-13T17:17:39;99635.03;;;22.39;22.04
75617;BME280;64200;55.426;37.758;2023-05-13T17:22:39;99629.88;;;22.24;22.20
75617;BME280;64200;55.426;37.758;2023-05-13T17:27:44;99638.72;;;22.20;22.78
75617;BME280;64200;55.426;37.758;2023-05-13T17:32:45;99646.63;;;21.87;23.33
75617;BME280;64200;55.426;37.758;2023-05-13T17:37:45;99660.63;;;21.85;23.40
75617;BME280;64200;55.426;37.758;2023-05-13T17:42:46;99662.47;;;21.83;23.58
75617;BME280;64200;55.426;37.758;2023-05-13T17:47:46;99664.84;;;21.79;24.03
75617;BME280;64200;55.426;37.758;2023-05-13T17:52:47;99667.47;;;21.63;24.21
75617;BME280;64200;55.426;37.758;2023-05-13T17:57:48;99680.22;;;21.56;24.50
75617;BME280;64200;55.426;37.758;2023-05-13T18:02:48;99684.25;;;21.61;24.57
75617;BME280;64200;55.426;37.758;2023-05-13T18:07:49;99684.44;;;21.50;24.78
75617;BME280;64200;55.426;37.758;2023-05-13T18:12:50;99683.00;;;21.43;25.19
75617;BME280;64200;55.426;37.758;2023-05-13T18:17:51;99689.09;;;21.34;25.65
75617;BME280;64200;55.426;37.758;2023-05-13T18:22:52;99684.81;;;21.27;25.65
75617;BME280;64200;55.426;37.758;2023-05-13T18:27:53;99693.94;;;21.20;25.71
75617;BME280;64200;55.426;37.758;2023-05-13T18:32:53;99695.13;;;21.11;26.14
75617;BME280;64200;55.426;37.758;2023-05-13T18:37:54;99704.81;;;21.02;26.47
75617;BME280;64200;55.426;37.758;2023-05-13T18:42:55;99709.34;;;20.92;26.47
75617;BME280;64200;55.426;37.758;2023-05-13T18:47:55;99707.41;;;20.81;27.03
75617;BME280;64200;55.426;37.758;2023-05-13T18:52:56;99710.63;;;20.72;27.47
75617;BME280;64200;55.426;37.758;2023-05-13T18:57:56;99711.06;;;20.57;27.76
75617;BME280;64200;55.426;37.758;2023-05-13T19:02:57;99708.91;;;20.44;28.33
75617;BME280;64200;55.426;37.758;2023-05-13T19:07:57;99720.91;;;20.31;28.72
75617;BME280;64200;55.426;37.758;2023-05-13T19:12:59;99702.59;;;20.13;29.07
75617;BME280;64200;55.426;37.758;2023-05-13T19:18:00;99716.00;;;20.07;28.88
75617;BME280;64200;55.426;37.758;2023-05-13T19:23:00;99717.38;;;20.00;29.18
75617;BME280;64200;55.426;37.758;2023-05-13T19:28:01;99712.91;;;19.86;29.85
75617;BME280;64200;55.426;37.758;2023-05-13T19:33:02;99718.38;;;19.78;29.71
75617;BME280;64200;55.426;37.758;2023-05-13T19:38:03;99717.16;;;19.68;30.20
75617;BME280;64200;55.426;37.758;2023-05-13T19:43:03;99721.56;;;19.63;30.65
75617;BME280;64200;55.426;37.758;2023-05-13T19:48:04;99719.84;;;19.55;31.17
75617;BME280;64200;55.426;37.758;2023-05-13T19:53:04;99724.06;;;19.42;31.33
75617;BME280;64200;55.426;37.758;2023-05-13T19:58:05;99723.16;;;19.23;31.96
75617;BME280;64200;55.426;37.758;2023-05-13T20:03:05;99735.88;;;19.10;32.33
75617;BME280;64200;55.426;37.758;2023-05-13T20:08:06;99731.31;;;18.96;32.42
75617;BME280;64200;55.426;37.758;2023-05-13T20:13:07;99733.94;;;18.83;33.34
75617;BME280;64200;55.426;37.758;2023-05-13T20:18:07;99738.34;;;18.72;33.14
75617;BME280;64200;55.426;37.758;2023-05-13T20:23:08;99747.88;;;18.69;33.29
75617;BME280;64200;55.426;37.758;2023-05-13T20:28:09;99756.91;;;18.56;33.68
75617;BME280;64200;55.426;37.758;2023-05-13T20:33:12;99766.72;;;18.50;34.04
75617;BME280;64200;55.426;37.758;2023-05-13T20:38:12;99755.69;;;18.40;34.00
75617;BME280;64200;55.426;37.758;2023-05-13T20:43:13;99762.63;;;18.39;34.43
75617;BME280;64200;55.426;37.758;2023-05-13T20:48:17;99770.88;;;18.37;34.42
75617;BME280;64200;55.426;37.758;2023-05-13T20:53:17;99763.16;;;18.26;34.95
75617;BME280;64200;55.426;37.758;2023-05-13T20:58:18;99768.59;;;18.13;34.81
75617;BME280;64200;55.426;37.758;2023-05-13T21:03:19;99774.78;;;17.95;35.52
75617;BME280;64200;55.426;37.758;2023-05-13T21:08:19;99787.31;;;17.88;35.76
75617;BME280;64200;55.426;37.758;2023-05-13T21:13:20;99780.91;;;17.76;35.95
75617;BME280;64200;55.426;37.758;2023-05-13T21:18:21;99780.16;;;17.70;35.73
75617;BME280;64200;55.426;37.758;2023-05-13T21:23:22;99785.03;;;17.64;36.04
75617;BME280;64200;55.426;37.758;2023-05-13T21:28:22;99779.13;;;17.56;35.91
75617;BME280;64200;55.426;37.758;2023-05-13T21:33:23;99790.94;;;17.54;36.13
75617;BME280;64200;55.426;37.758;2023-05-13T21:38:23;99790.66;;;17.52;36.27
75617;BME280;64200;55.426;37.758;2023-05-13T21:43:24;99787.59;;;17.56;36.18
75617;BME280;64200;55.426;37.758;2023-05-13T21:48:25;99790.91;;;17.49;36.33
75617;BME280;64200;55.426;37.758;2023-05-13T21:53:25;99793.47;;;17.35;36.47
75617;BME280;64200;55.426;37.758;2023-05-13T21:58:27;99790.38;;;17.22;36.56
75617;BME280;64200;55.426;37.758;2023-05-13T22:03:28;99779.31;;;17.01;36.57
75617;BME280;64200;55.426;37.758;2023-05-13T22:08:28;99799.25;;;16.98;36.65
75617;BME280;64200;55.426;37.758;2023-05-13T22:13:29;99802.59;;;16.96;36.59
75617;BME280;64200;55.426;37.758;2023-05-13T22:18:29;99790.75;;;16.86;36.60
75617;BME280;64200;55.426;37.758;2023-05-13T22:23:30;99795.06;;;16.76;36.55
75617;BME280;64200;55.426;37.758;2023-05-13T22:28:31;99791.69;;;16.66;36.40
75617;BME280;64200;55.426;37.758;2023-05-13T22:33:31;99794.47;;;16.61;36.56
75617;BME280;64200;55.426;37.758;2023-05-13T22:38:32;99800.09;;;16.55;36.83
75617;BME280;64200;55.426;37.758;2023-05-13T22:43:33;99800.25;;;16.40;36.71
75617;BME280;64200;55.426;37.758;2023-05-13T22:48:33;99803.28;;;16.31;36.83
75617;BME280;64200;55.426;37.758;2023-05-13T22:53:34;99796.75;;;16.13;37.17
75617;BME280;64200;55.426;37.758;2023-05-13T22:58:34;99800.31;;;16.08;37.43
75617;BME280;64200;55.426;37.758;2023-05-13T23:03:35;99802.88;;;16.06;37.43
75617;BME280;64200;55.426;37.758;2023-05-13T23:08:36;99799.53;;;16.02;37.57
75617;BME280;64200;55.426;37.758;2023-05-13T23:13:37;99801.47;;;15.90;37.42
75617;BME280;64200;55.426;37.758;2023-05-13T23:18:37;99808.81;;;15.82;37.76
75617;BME280;64200;55.426;37.758;2023-05-13T23:23:38;99815.22;;;15.83;37.87
75617;BME280;64200;55.426;37.758;2023-05-13T23:28:38;99818.91;;;15.68;38.28
75617;BME280;64200;55.426;37.758;2023-05-13T23:33:39;99816.78;;;15.57;38.70
75617;BME280;64200;55.426;37.758;2023-05-13T23:38:39;99819.66;;;15.42;38.81
75617;BME280;64200;55.426;37.758;2023-05-13T23:43:40;99823.88;;;15.26;39.62
75617;BME280;64200;55.426;37.758;2023-05-13T23:48:40;99816.94;;;15.22;39.66
75617;BME280;64200;55.426;37.758;2023-05-13T23:53:41;99824.25;;;15.14;39.93
75617;BME280;64200;55.426;37.758;2023-05-13T23:58:42;99826.72;;;15.06;40.10
